sensor_id;sensor_type;location;lat;lon;timestamp;pressure;altitude;pressure_sealevel;temperature;humidity
4981;BME280;2507;50.392;7.482;2022-08-30T00:00:13;101070.66;;;18.59;52.41
4981;BME280;2507;50.392;7.482;2022-08-30T00:02:59;101059.16;;;18.31;52.95
4981;BME280;2507;50.392;7.482;2022-08-30T00:05:25;101062.06;;;18.01;53.33
4981;BME280;2507;50.392;7.482;2022-08-30T00:07:51;101066.66;;;18.08;53.48
4981;BME280;2507;50.392;7.482;2022-08-30T00:10:17;101063.16;;;18.08;53.53
4981;BME280;2507;50.392;7.482;2022-08-30T00:12:42;101065.78;;;18.17;53.58
4981;BME280;2507;50.392;7.482;2022-08-30T00:15:09;101065.41;;;18.12;53.42
4981;BME280;2507;50.392;7.482;2022-08-30T00:17:34;101063.63;;;18.03;53.67
4981;BME280;2507;50.392;7.482;2022-08-30T00:20:01;101074.44;;;17.73;54.79
4981;BME280;2507;50.392;7.482;2022-08-30T00:22:26;101091.38;;;17.63;55.12
4981;BME280;2507;50.392;7.482;2022-08-30T00:24:51;101087.44;;;17.38;55.70
4981;BME280;2507;50.392;7.482;2022-08-30T00:27:16;101093.31;;;17.22;56.55
4981;BME280;2507;50.392;7.482;2022-08-30T00:29:42;101091.19;;;17.26;56.72
4981;BME280;2507;50.392;7.482;2022-08-30T00:32:07;101094.97;;;17.33;55.72
4981;BME280;2507;50.392;7.482;2022-08-30T00:34:32;101096.53;;;17.35;55.78
4981;BME280;2507;50.392;7.482;2022-08-30T00:36:58;101100.41;;;17.31;56.13
4981;BME280;2507;50.392;7.482;2022-08-30T00:39:24;101081.00;;;17.41;55.99
4981;BME280;2507;50.392;7.482;2022-08-30T00:41:50;101090.38;;;17.73;55.11
4981;BME280;2507;50.392;7.482;2022-08-30T00:44:15;101088.00;;;17.80;54.93
4981;BME280;2507;50.392;7.482;2022-08-30T00:46:40;101084.81;;;17.67;54.91
4981;BME280;2507;50.392;7.482;2022-08-30T00:49:07;101076.13;;;17.65;55.34
4981;BME280;2507;50.392;7.482;2022-08-30T00:51:34;101081.75;;;17.62;55.43
4981;BME280;2507;50.392;7.482;2022-08-30T00:54:01;101078.94;;;17.63;55.63
4981;BME280;2507;50.392;7.482;2022-08-30T00:56:28;101077.94;;;17.64;55.58
4981;BME280;2507;50.392;7.482;2022-08-30T00:58:57;101078.66;;;17.57;55.57
4981;BME280;2507;50.392;7.482;2022-08-30T01:01:24;101082.69;;;17.70;54.96
4981;BME280;2507;50.392;7.482;2022-08-30T01:03:49;101090.53;;;17.62;54.55
4981;BME280;2507;50.392;7.482;2022-08-30T01:06:16;101088.16;;;17.30;55.94
4981;BME280;2507;50.392;7.482;2022-08-30T01:08:42;101095.09;;;17.22;55.71
4981;BME280;2507;50.392;7.482;2022-08-30T01:11:08;101093.44;;;17.21;55.91
4981;BME280;2507;50.392;7.482;2022-08-30T01:13:34;101099.16;;;17.16;56.16
4981;BME280;2507;50.392;7.482;2022-08-30T01:16:00;101096.38;;;17.08;55.85
4981;BME280;2507;50.392;7.482;2022-08-30T01:18:27;101100.50;;;16.82;56.73
4981;BME280;2507;50.392;7.482;2022-08-30T01:21:10;101091.31;;;16.86;56.29
4981;BME280;2507;50.392;7.482;2022-08-30T01:23:39;101093.78;;;16.69;56.71
4981;BME280;2507;50.392;7.482;2022-08-30T01:26:07;101083.25;;;16.48;57.42
4981;BME280;2507;50.392;7.482;2022-08-30T01:28:33;101093.72;;;16.50;57.60
4981;BME280;2507;50.392;7.482;2022-08-30T01:30:58;101099.72;;;16.52;57.85
4981;BME280;2507;50.392;7.482;2022-08-30T01:33:24;101110.34;;;16.61;57.18
4981;BME280;2507;50.392;7.482;2022-08-30T01:35:58;101099.31;;;16.56;57.09
4981;BME280;2507;50.392;7.482;2022-08-30T01:38:30;101102.25;;;16.63;56.96
4981;BME280;2507;50.392;7.482;2022-08-30T01:40:59;101093.63;;;16.70;56.91
4981;BME280;2507;50.392;7.482;2022-08-30T01:43:26;101094.22;;;16.74;57.03
4981;BME280;2507;50.392;7.482;2022-08-30T01:45:51;101089.91;;;16.92;56.81
4981;BME280;2507;50.392;7.482;2022-08-30T01:48:16;101094.25;;;17.02;56.48
4981;BME280;2507;50.392;7.482;2022-08-30T01:50:42;101093.84;;;17.07;56.16
4981;BME280;2507;50.392;7.482;2022-08-30T01:53:07;101094.81;;;17.34;55.40
4981;BME280;2507;50.392;7.482;2022-08-30T01:55:33;101101.81;;;17.26;55.39
4981;BME280;2507;50.392;7.482;2022-08-30T01:57:58;101103.19;;;17.20;55.50
4981;BME280;2507;50.392;7.482;2022-08-30T02:00:24;101110.75;;;17.15;55.99
4981;BME280;2507;50.392;7.482;2022-08-30T02:02:49;101114.75;;;17.00;55.89
4981;BME280;2507;50.392;7.482;2022-08-30T02:05:15;101116.81;;;16.78;56.55
4981;BME280;2507;50.392;7.482;2022-08-30T02:07:40;101115.81;;;16.69;57.32
4981;BME280;2507;50.392;7.482;2022-08-30T02:10:06;101117.63;;;16.78;57.00
4981;BME280;2507;50.392;7.482;2022-08-30T02:12:32;101115.81;;;16.69;57.17
4981;BME280;2507;50.392;7.482;2022-08-30T02:14:59;101111.78;;;16.75;56.95
4981;BME280;2507;50.392;7.482;2022-08-30T02:17:25;101119.53;;;16.57;57.14
4981;BME280;2507;50.392;7.482;2022-08-30T02:19:50;101112.63;;;16.45;57.67
4981;BME280;2507;50.392;7.482;2022-08-30T02:22:16;101105.72;;;16.54;57.37
4981;BME280;2507;50.392;7.482;2022-08-30T02:24:41;101101.16;;;16.65;56.85
4981;BME280;2507;50.392;7.482;2022-08-30T02:27:06;101099.47;;;16.64;57.01
4981;BME280;2507;50.392;7.482;2022-08-30T02:29:32;101108.00;;;16.68;57.12
4981;BME280;2507;50.392;7.482;2022-08-30T02:31:58;101109.13;;;16.65;57.59
4981;BME280;2507;50.392;7.482;2022-08-30T02:34:24;101111.06;;;16.63;57.42
4981;BME280;2507;50.392;7.482;2022-08-30T02:36:49;101099.47;;;16.64;57.57
4981;BME280;2507;50.392;7.482;2022-08-30T02:39:15;101102.53;;;16.60;57.49
4981;BME280;2507;50.392;7.482;2022-08-30T02:41:41;101090.41;;;16.27;58.54
4981;BME280;2507;50.392;7.482;2022-08-30T02:44:07;101091.84;;;16.10;58.73
4981;BME280;2507;50.392;7.482;2022-08-30T02:46:33;101102.09;;;16.04;59.24
4981;BME280;2507;50.392;7.482;2022-08-30T02:48:59;101093.94;;;16.16;58.39
4981;BME280;2507;50.392;7.482;2022-08-30T02:51:24;101087.84;;;16.16;58.59
4981;BME280;2507;50.392;7.482;2022-08-30T02:53:50;101091.41;;;16.05;58.98
4981;BME280;2507;50.392;7.482;2022-08-30T02:56:15;101091.41;;;16.05;58.94
4981;BME280;2507;50.392;7.482;2022-08-30T02:58:42;101088.06;;;16.13;58.70
4981;BME280;2507;50.392;7.482;2022-08-30T03:01:09;101085.03;;;16.17;58.76
4981;BME280;2507;50.392;7.482;2022-08-30T03:03:35;101073.88;;;16.14;58.71
4981;BME280;2507;50.392;7.482;2022-08-30T03:06:01;101085.00;;;16.08;59.64
4981;BME280;2507;50.392;7.482;2022-08-30T03:08:29;101082.88;;;16.02;59.31
4981;BME280;2507;50.392;7.482;2022-08-30T03:10:55;101092.66;;;16.11;59.12
4981;BME280;2507;50.392;7.482;2022-08-30T03:13:21;101084.84;;;16.09;58.99
4981;BME280;2507;50.392;7.482;2022-08-30T03:15:47;101094.72;;;15.98;59.45
4981;BME280;2507;50.392;7.482;2022-08-30T03:18:14;101094.66;;;15.88;59.68
4981;BME280;2507;50.392;7.482;2022-08-30T03:20:40;101086.84;;;15.87;60.02
4981;BME280;2507;50.392;7.482;2022-08-30T03:23:05;101088.56;;;15.97;59.40
4981;BME280;2507;50.392;7.482;2022-08-30T03:25:31;101094.16;;;16.04;59.16
4981;BME280;2507;50.392;7.482;2022-08-30T03:27:57;101087.97;;;16.14;58.65
4981;BME280;2507;50.392;7.482;2022-08-30T03:30:23;101094.00;;;15.96;59.33
4981;BME280;2507;50.392;7.482;2022-08-30T03:32:48;101085.91;;;15.97;59.25
4981;BME280;2507;50.392;7.482;2022-08-30T03:35:14;101086.34;;;16.02;58.75
4981;BME280;2507;50.392;7.482;2022-08-30T03:37:40;101079.63;;;15.98;58.96
4981;BME280;2507;50.392;7.482;2022-08-30T03:40:06;101082.28;;;15.98;58.65
4981;BME280;2507;50.392;7.482;2022-08-30T03:42:33;101085.78;;;15.99;58.64
4981;BME280;2507;50.392;7.482;2022-08-30T03:44:58;101094.44;;;16.01;58.75
4981;BME280;2507;50.392;7.482;2022-08-30T03:47:26;101092.50;;;16.03;58.66
4981;BME280;2507;50.392;7.482;2022-08-30T03:49:51;101093.00;;;15.97;58.77
4981;BME280;2507;50.392;7.482;2022-08-30T03:52:17;101092.16;;;15.96;59.00
4981;BME280;2507;50.392;7.482;2022-08-30T03:54:42;101092.72;;;15.90;58.95
4981;BME280;2507;50.392;7.482;2022-08-30T03:57:07;101088.00;;;15.73;59.42
4981;BME280;2507;50.392;7.482;2022-08-30T03:59:32;101088.06;;;15.62;59.50
4981;BME280;2507;50.392;7.482;2022-08-30T04:01:58;101090.84;;;15.61;60.16
4981;BME280;2507;50.392;7.482;2022-08-30T04:04:24;101093.31;;;15.53;60.75
4981;BME280;2507;50.392;7.482;2022-08-30T04:06:49;101089.72;;;15.43;61.33
4981;BME280;2507;50.392;7.482;2022-08-30T04:09:15;101083.34;;;15.45;61.55
4981;BME280;2507;50.392;7.482;2022-08-30T04:11:40;101097.66;;;15.43;61.13
4981;BME280;2507;50.392;7.482;2022-08-30T04:14:05;101093.66;;;15.48;61.45
4981;BME280;2507;50.392;7.482;2022-08-30T04:16:31;101102.09;;;15.42;61.67
4981;BME280;2507;50.392;7.482;2022-08-30T04:18:56;101096.00;;;15.42;62.05
4981;BME280;2507;50.392;7.482;2022-08-30T04:21:21;101096.94;;;15.41;61.98
4981;BME280;2507;50.392;7.482;2022-08-30T04:23:47;101106.75;;;15.50;61.55
4981;BME280;2507;50.392;7.482;2022-08-30T04:26:12;101109.19;;;15.53;61.43
4981;BME280;2507;50.392;7.482;2022-08-30T04:28:37;101095.94;;;15.53;61.28
4981;BME280;2507;50.392;7.482;2022-08-30T04:31:11;101093.63;;;15.59;60.82
4981;BME280;2507;50.392;7.482;2022-08-30T04:33:37;101095.03;;;15.63;60.36
4981;BME280;2507;50.392;7.482;2022-08-30T04:36:04;101100.72;;;15.59;61.02
4981;BME280;2507;50.392;7.482;2022-08-30T04:38:31;101110.78;;;15.65;60.69
4981;BME280;2507;50.392;7.482;2022-08-30T04:40:57;101099.75;;;15.60;60.93
4981;BME280;2507;50.392;7.482;2022-08-30T04:43:23;101103.22;;;15.60;61.33
4981;BME280;2507;50.392;7.482;2022-08-30T04:45:50;101116.53;;;15.70;61.09
4981;BME280;2507;50.392;7.482;2022-08-30T04:48:16;101110.78;;;15.65;61.43
4981;BME280;2507;50.392;7.482;2022-08-30T04:50:42;101108.44;;;15.71;61.62
4981;BME280;2507;50.392;7.482;2022-08-30T04:53:08;101105.03;;;15.80;61.91
4981;BME280;2507;50.392;7.482;2022-08-30T04:55:33;101105.88;;;16.01;61.21
4981;BME280;2507;50.392;7.482;2022-08-30T04:57:58;101109.97;;;16.15;61.62
4981;BME280;2507;50.392;7.482;2022-08-30T05:00:24;101111.94;;;16.43;61.18
4981;BME280;2507;50.392;7.482;2022-08-30T05:02:50;101109.66;;;16.59;60.05
4981;BME280;2507;50.392;7.482;2022-08-30T05:05:15;101118.19;;;16.42;60.73
4981;BME280;2507;50.392;7.482;2022-08-30T05:07:59;101117.03;;;16.56;59.83
4981;BME280;2507;50.392;7.482;2022-08-30T05:10:24;101130.69;;;16.91;59.32
4981;BME280;2507;50.392;7.482;2022-08-30T05:12:52;101133.91;;;17.13;57.88
4981;BME280;2507;50.392;7.482;2022-08-30T05:15:18;101126.69;;;17.25;57.74
4981;BME280;2507;50.392;7.482;2022-08-30T05:17:43;101129.47;;;17.43;57.26
4981;BME280;2507;50.392;7.482;2022-08-30T05:20:09;101146.53;;;17.88;57.03
4981;BME280;2507;50.392;7.482;2022-08-30T05:22:36;101127.34;;;18.59;55.74
4981;BME280;2507;50.392;7.482;2022-08-30T05:25:02;101138.06;;;19.57;52.75
4981;BME280;2507;50.392;7.482;2022-08-30T05:27:29;101125.13;;;20.56;50.73
4981;BME280;2507;50.392;7.482;2022-08-30T05:29:54;101138.06;;;21.34;47.79
4981;BME280;2507;50.392;7.482;2022-08-30T05:32:19;101129.25;;;21.58;46.86
4981;BME280;2507;50.392;7.482;2022-08-30T05:34:45;101132.91;;;22.13;45.73
4981;BME280;2507;50.392;7.482;2022-08-30T05:37:10;101136.47;;;21.82;45.02
4981;BME280;2507;50.392;7.482;2022-08-30T05:39:35;101131.75;;;21.44;45.46
4981;BME280;2507;50.392;7.482;2022-08-30T05:42:00;101132.53;;;20.78;47.00
4981;BME280;2507;50.392;7.482;2022-08-30T05:44:26;101136.56;;;20.82;47.27
4981;BME280;2507;50.392;7.482;2022-08-30T05:46:51;101136.22;;;20.77;47.53
4981;BME280;2507;50.392;7.482;2022-08-30T05:49:16;101138.66;;;20.63;47.67
4981;BME280;2507;50.392;7.482;2022-08-30T05:51:42;101146.47;;;20.56;47.84
4981;BME280;2507;50.392;7.482;2022-08-30T05:54:08;101144.81;;;20.63;47.67
4981;BME280;2507;50.392;7.482;2022-08-30T05:56:36;101147.22;;;20.82;47.77
4981;BME280;2507;50.392;7.482;2022-08-30T05:59:04;101137.09;;;21.60;46.35
4981;BME280;2507;50.392;7.482;2022-08-30T06:01:34;101131.41;;;22.82;44.14
4981;BME280;2507;50.392;7.482;2022-08-30T06:04:01;101133.63;;;23.77;42.00
4981;BME280;2507;50.392;7.482;2022-08-30T06:06:28;101121.22;;;25.00;39.41
4981;BME280;2507;50.392;7.482;2022-08-30T06:08:54;101124.16;;;26.11;37.48
4981;BME280;2507;50.392;7.482;2022-08-30T06:11:20;101121.28;;;27.35;35.95
4981;BME280;2507;50.392;7.482;2022-08-30T06:13:47;101122.56;;;27.78;34.69
4981;BME280;2507;50.392;7.482;2022-08-30T06:16:14;101121.53;;;27.98;33.84
4981;BME280;2507;50.392;7.482;2022-08-30T06:18:40;101127.25;;;28.67;33.56
4981;BME280;2507;50.392;7.482;2022-08-30T06:21:06;101125.41;;;29.12;32.80
4981;BME280;2507;50.392;7.482;2022-08-30T06:23:31;101114.19;;;29.02;32.21
4981;BME280;2507;50.392;7.482;2022-08-30T06:26:03;101117.28;;;28.61;33.00
4981;BME280;2507;50.392;7.482;2022-08-30T06:28:28;101116.31;;;28.23;33.18
4981;BME280;2507;50.392;7.482;2022-08-30T06:30:54;101115.47;;;28.29;33.65
4981;BME280;2507;50.392;7.482;2022-08-30T06:33:19;101121.03;;;28.54;32.87
4981;BME280;2507;50.392;7.482;2022-08-30T06:35:44;101119.81;;;28.37;33.29
4981;BME280;2507;50.392;7.482;2022-08-30T06:38:10;101133.09;;;29.08;32.33
4981;BME280;2507;50.392;7.482;2022-08-30T06:40:35;101121.44;;;29.46;32.11
4981;BME280;2507;50.392;7.482;2022-08-30T06:43:01;101120.72;;;29.26;31.96
4981;BME280;2507;50.392;7.482;2022-08-30T06:45:26;101112.66;;;29.19;32.24
4981;BME280;2507;50.392;7.482;2022-08-30T06:47:51;101121.03;;;28.47;32.52
4981;BME280;2507;50.392;7.482;2022-08-30T06:50:17;101122.34;;;27.66;34.01
4981;BME280;2507;50.392;7.482;2022-08-30T06:52:43;101126.31;;;28.16;34.17
4981;BME280;2507;50.392;7.482;2022-08-30T06:55:13;101125.22;;;28.43;33.27
4981;BME280;2507;50.392;7.482;2022-08-30T06:57:39;101133.38;;;28.94;33.06
4981;BME280;2507;50.392;7.482;2022-08-30T07:00:08;101129.81;;;28.36;33.47
4981;BME280;2507;50.392;7.482;2022-08-30T07:02:35;101133.84;;;27.14;34.82
4981;BME280;2507;50.392;7.482;2022-08-30T07:05:02;101123.06;;;26.33;36.60
4981;BME280;2507;50.392;7.482;2022-08-30T07:07:28;101135.13;;;26.37;36.77
4981;BME280;2507;50.392;7.482;2022-08-30T07:09:53;101126.97;;;26.58;36.20
4981;BME280;2507;50.392;7.482;2022-08-30T07:12:19;101122.91;;;26.75;35.95
4981;BME280;2507;50.392;7.482;2022-08-30T07:14:44;101131.09;;;26.61;36.39
4981;BME280;2507;50.392;7.482;2022-08-30T07:17:09;101122.19;;;26.60;36.45
4981;BME280;2507;50.392;7.482;2022-08-30T07:19:53;101126.63;;;25.85;37.35
4981;BME280;2507;50.392;7.482;2022-08-30T07:22:19;101129.09;;;26.35;37.17
4981;BME280;2507;50.392;7.482;2022-08-30T07:24:45;101131.84;;;26.82;36.11
4981;BME280;2507;50.392;7.482;2022-08-30T07:27:11;101141.22;;;26.93;35.81
4981;BME280;2507;50.392;7.482;2022-08-30T07:29:37;101144.25;;;26.77;36.30
4981;BME280;2507;50.392;7.482;2022-08-30T07:32:02;101145.31;;;26.82;36.43
4981;BME280;2507;50.392;7.482;2022-08-30T07:34:28;101140.59;;;27.84;34.70
4981;BME280;2507;50.392;7.482;2022-08-30T07:36:53;101139.97;;;29.04;32.93
4981;BME280;2507;50.392;7.482;2022-08-30T07:39:18;101142.69;;;29.73;31.80
4981;BME280;2507;50.392;7.482;2022-08-30T07:41:44;101136.88;;;30.44;30.98
4981;BME280;2507;50.392;7.482;2022-08-30T07:44:10;101137.41;;;30.88;30.38
4981;BME280;2507;50.392;7.482;2022-08-30T07:46:38;101134.63;;;31.25;29.93
4981;BME280;2507;50.392;7.482;2022-08-30T07:49:04;101135.47;;;31.66;29.53
4981;BME280;2507;50.392;7.482;2022-08-30T07:51:30;101134.31;;;32.66;28.48
4981;BME280;2507;50.392;7.482;2022-08-30T07:53:55;101136.16;;;31.50;29.21
4981;BME280;2507;50.392;7.482;2022-08-30T07:56:22;101135.03;;;31.10;29.69
4981;BME280;2507;50.392;7.482;2022-08-30T07:58:48;101130.53;;;31.75;28.38
4981;BME280;2507;50.392;7.482;2022-08-30T08:01:14;101132.50;;;30.97;29.40
4981;BME280;2507;50.392;7.482;2022-08-30T08:03:41;101126.59;;;30.28;30.63
4981;BME280;2507;50.392;7.482;2022-08-30T08:06:08;101132.59;;;30.90;30.01
4981;BME280;2507;50.392;7.482;2022-08-30T08:08:35;101124.59;;;30.59;30.35
4981;BME280;2507;50.392;7.482;2022-08-30T08:11:15;101126.84;;;30.80;30.20
4981;BME280;2507;50.392;7.482;2022-08-30T08:13:42;101133.41;;;31.21;29.80
4981;BME280;2507;50.392;7.482;2022-08-30T08:16:08;101128.13;;;31.26;29.92
4981;BME280;2507;50.392;7.482;2022-08-30T08:18:34;101130.13;;;31.48;29.34
4981;BME280;2507;50.392;7.482;2022-08-30T08:21:00;101138.38;;;32.29;28.75
4981;BME280;2507;50.392;7.482;2022-08-30T08:23:25;101135.81;;;31.58;29.54
4981;BME280;2507;50.392;7.482;2022-08-30T08:25:51;101127.06;;;31.27;29.34
4981;BME280;2507;50.392;7.482;2022-08-30T08:28:16;101130.34;;;30.87;30.27
4981;BME280;2507;50.392;7.482;2022-08-30T08:30:42;101133.94;;;31.70;29.38
4981;BME280;2507;50.392;7.482;2022-08-30T08:33:08;101127.63;;;31.17;30.14
4981;BME280;2507;50.392;7.482;2022-08-30T08:35:34;101134.63;;;31.25;30.03
4981;BME280;2507;50.392;7.482;2022-08-30T08:38:00;101135.13;;;31.63;29.10
4981;BME280;2507;50.392;7.482;2022-08-30T08:40:25;101132.16;;;31.53;29.49
4981;BME280;2507;50.392;7.482;2022-08-30T08:45:23;101136.94;;;29.63;31.61
4981;BME280;2507;50.392;7.482;2022-08-30T08:48:28;101125.94;;;28.83;32.96
4981;BME280;2507;50.392;7.482;2022-08-30T08:50:52;101121.88;;;28.41;34.12
4981;BME280;2507;50.392;7.482;2022-08-30T08:53:36;101123.91;;;27.21;35.73
4981;BME280;2507;50.392;7.482;2022-08-30T08:56:05;101123.97;;;27.35;35.56
4981;BME280;2507;50.392;7.482;2022-08-30T08:58:42;101117.56;;;27.75;35.23
4981;BME280;2507;50.392;7.482;2022-08-30T09:01:10;101121.50;;;27.59;35.85
4981;BME280;2507;50.392;7.482;2022-08-30T09:03:36;101111.13;;;27.50;35.64
4981;BME280;2507;50.392;7.482;2022-08-30T09:08:46;101111.66;;;26.65;37.33
4981;BME280;2507;50.392;7.482;2022-08-30T09:11:20;101106.09;;;26.33;37.37
4981;BME280;2507;50.392;7.482;2022-08-30T09:13:46;101099.94;;;26.86;37.04
4981;BME280;2507;50.392;7.482;2022-08-30T09:19:27;101092.66;;;27.47;36.13
4981;BME280;2507;50.392;7.482;2022-08-30T09:22:18;101091.59;;;27.48;35.73
4981;BME280;2507;50.392;7.482;2022-08-30T09:25:01;101087.56;;;26.98;37.39
4981;BME280;2507;50.392;7.482;2022-08-30T09:27:33;101094.19;;;26.95;36.89
4981;BME280;2507;50.392;7.482;2022-08-30T09:30:08;101091.31;;;27.03;36.82
4981;BME280;2507;50.392;7.482;2022-08-30T09:32:37;101085.03;;;26.83;37.23
4981;BME280;2507;50.392;7.482;2022-08-30T09:35:04;101091.66;;;26.81;37.13
4981;BME280;2507;50.392;7.482;2022-08-30T09:37:35;101086.81;;;27.23;36.20
4981;BME280;2507;50.392;7.482;2022-08-30T09:40:08;101070.81;;;27.15;36.32
4981;BME280;2507;50.392;7.482;2022-08-30T09:42:34;101079.59;;;27.44;36.13
4981;BME280;2507;50.392;7.482;2022-08-30T09:45:02;101073.78;;;27.47;35.77
4981;BME280;2507;50.392;7.482;2022-08-30T09:47:41;101073.97;;;27.32;35.40
4981;BME280;2507;50.392;7.482;2022-08-30T09:50:16;101060.00;;;27.02;36.24
4981;BME280;2507;50.392;7.482;2022-08-30T09:58:29;101050.88;;;28.21;33.78
4981;BME280;2507;50.392;7.482;2022-08-30T10:01:10;101046.69;;;28.38;33.87
4981;BME280;2507;50.392;7.482;2022-08-30T10:03:53;101040.22;;;28.90;32.75
4981;BME280;2507;50.392;7.482;2022-08-30T10:06:31;101038.28;;;29.03;32.80
4981;BME280;2507;50.392;7.482;2022-08-30T10:11:59;101036.34;;;29.10;32.24
4981;BME280;2507;50.392;7.482;2022-08-30T10:14:58;101037.56;;;28.26;33.19
4981;BME280;2507;50.392;7.482;2022-08-30T10:17:35;101028.72;;;27.93;33.35
4981;BME280;2507;50.392;7.482;2022-08-30T10:23:28;101026.06;;;28.50;32.72
4981;BME280;2507;50.392;7.482;2022-08-30T10:28:43;101017.31;;;27.78;33.93
4981;BME280;2507;50.392;7.482;2022-08-30T10:31:26;101021.47;;;27.93;33.86
4981;BME280;2507;50.392;7.482;2022-08-30T10:34:01;101016.81;;;28.27;33.28
4981;BME280;2507;50.392;7.482;2022-08-30T10:36:36;101019.06;;;28.80;32.20
4981;BME280;2507;50.392;7.482;2022-08-30T10:39:06;101014.03;;;28.90;32.50
4981;BME280;2507;50.392;7.482;2022-08-30T10:41:36;101017.56;;;29.47;31.25
4981;BME280;2507;50.392;7.482;2022-08-30T10:44:18;101008.50;;;29.59;31.15
4981;BME280;2507;50.392;7.482;2022-08-30T10:49:38;101001.34;;;29.71;31.43
4981;BME280;2507;50.392;7.482;2022-08-30T10:52:18;101000.38;;;30.02;30.48
4981;BME280;2507;50.392;7.482;2022-08-30T10:54:57;101003.47;;;29.63;30.48
4981;BME280;2507;50.392;7.482;2022-08-30T10:57:24;101010.09;;;29.91;30.70
4981;BME280;2507;50.392;7.482;2022-08-30T10:59:59;101005.28;;;29.51;31.01
4981;BME280;2507;50.392;7.482;2022-08-30T11:05:21;100996.91;;;29.77;30.09
4981;BME280;2507;50.392;7.482;2022-08-30T11:08:03;100994.53;;;29.87;29.87
4981;BME280;2507;50.392;7.482;2022-08-30T11:13:48;100996.03;;;29.83;29.96
4981;BME280;2507;50.392;7.482;2022-08-30T11:16:15;100996.16;;;29.70;29.98
4981;BME280;2507;50.392;7.482;2022-08-30T11:18:47;100990.50;;;29.71;30.02
4981;BME280;2507;50.392;7.482;2022-08-30T11:21:33;100988.00;;;30.12;29.47
4981;BME280;2507;50.392;7.482;2022-08-30T11:24:06;100987.25;;;30.53;29.06
4981;BME280;2507;50.392;7.482;2022-08-30T11:31:52;100979.69;;;30.73;28.65
4981;BME280;2507;50.392;7.482;2022-08-30T11:37:41;100976.56;;;31.41;27.42
4981;BME280;2507;50.392;7.482;2022-08-30T11:40:11;100966.13;;;30.73;28.34
4981;BME280;2507;50.392;7.482;2022-08-30T11:42:55;100965.63;;;30.35;28.95
4981;BME280;2507;50.392;7.482;2022-08-30T11:48:00;100964.28;;;30.26;29.59
4981;BME280;2507;50.392;7.482;2022-08-30T11:53:24;100956.16;;;30.08;29.59
4981;BME280;2507;50.392;7.482;2022-08-30T11:56:04;100947.78;;;30.09;29.72
4981;BME280;2507;50.392;7.482;2022-08-30T11:58:54;100946.63;;;30.05;29.61
4981;BME280;2507;50.392;7.482;2022-08-30T12:04:35;100943.50;;;30.02;30.00
4981;BME280;2507;50.392;7.482;2022-08-30T12:07:07;100950.47;;;30.46;28.99
4981;BME280;2507;50.392;7.482;2022-08-30T12:09:57;100953.84;;;31.00;27.74
4981;BME280;2507;50.392;7.482;2022-08-30T12:15:02;100931.63;;;31.45;27.23
4981;BME280;2507;50.392;7.482;2022-08-30T12:17:53;100936.06;;;31.74;26.98
4981;BME280;2507;50.392;7.482;2022-08-30T12:20:42;100935.84;;;31.64;27.55
4981;BME280;2507;50.392;7.482;2022-08-30T12:23:17;100930.50;;;30.99;28.41
4981;BME280;2507;50.392;7.482;2022-08-30T12:25:43;100938.56;;;30.76;28.33
4981;BME280;2507;50.392;7.482;2022-08-30T12:28:11;100936.22;;;30.80;28.26
4981;BME280;2507;50.392;7.482;2022-08-30T12:30:37;100925.34;;;31.21;27.71
4981;BME280;2507;50.392;7.482;2022-08-30T12:33:03;100930.94;;;31.49;26.85
4981;BME280;2507;50.392;7.482;2022-08-30T12:35:29;100931.00;;;31.89;26.08
4981;BME280;2507;50.392;7.482;2022-08-30T12:37:59;100920.56;;;32.09;26.47
4981;BME280;2507;50.392;7.482;2022-08-30T12:40:26;100926.66;;;32.16;26.25
4981;BME280;2507;50.392;7.482;2022-08-30T12:42:58;100915.13;;;32.09;26.80
4981;BME280;2507;50.392;7.482;2022-08-30T12:45:27;100919.69;;;32.20;25.93
4981;BME280;2507;50.392;7.482;2022-08-30T12:48:02;100912.16;;;32.39;26.15
4981;BME280;2507;50.392;7.482;2022-08-30T12:50:33;100909.69;;;32.65;25.23
4981;BME280;2507;50.392;7.482;2022-08-30T12:53:11;100909.03;;;32.75;25.20
4981;BME280;2507;50.392;7.482;2022-08-30T12:55:59;100907.94;;;32.59;26.06
4981;BME280;2507;50.392;7.482;2022-08-30T12:58:42;100910.28;;;32.67;25.54
4981;BME280;2507;50.392;7.482;2022-08-30T13:01:16;100903.50;;;32.70;26.06
4981;BME280;2507;50.392;7.482;2022-08-30T13:03:42;100904.50;;;32.80;26.19
4981;BME280;2507;50.392;7.482;2022-08-30T13:06:35;100907.06;;;32.42;25.97
4981;BME280;2507;50.392;7.482;2022-08-30T13:09:01;100897.53;;;32.28;25.84
4981;BME280;2507;50.392;7.482;2022-08-30T13:11:26;100897.00;;;32.87;25.34
4981;BME280;2507;50.392;7.482;2022-08-30T13:13:57;100894.13;;;32.77;26.07
4981;BME280;2507;50.392;7.482;2022-08-30T13:16:41;100887.81;;;32.44;26.29
4981;BME280;2507;50.392;7.482;2022-08-30T13:19:35;100890.91;;;33.14;25.72
4981;BME280;2507;50.392;7.482;2022-08-30T13:22:02;100888.50;;;33.34;24.96
4981;BME280;2507;50.392;7.482;2022-08-30T13:24:28;100886.22;;;33.26;24.99
4981;BME280;2507;50.392;7.482;2022-08-30T13:26:55;100880.66;;;33.37;25.24
4981;BME280;2507;50.392;7.482;2022-08-30T13:29:25;100882.97;;;33.29;25.39
4981;BME280;2507;50.392;7.482;2022-08-30T13:31:51;100868.59;;;33.50;24.38
4981;BME280;2507;50.392;7.482;2022-08-30T13:34:16;100870.06;;;33.41;25.03
4981;BME280;2507;50.392;7.482;2022-08-30T13:36:48;100867.91;;;33.21;24.78
4981;BME280;2507;50.392;7.482;2022-08-30T13:39:14;100868.16;;;33.20;25.08
4981;BME280;2507;50.392;7.482;2022-08-30T13:41:41;100870.38;;;33.44;25.35
4981;BME280;2507;50.392;7.482;2022-08-30T13:44:06;100866.44;;;33.52;24.83
4981;BME280;2507;50.392;7.482;2022-08-30T13:46:31;100866.81;;;33.60;24.42
4981;BME280;2507;50.392;7.482;2022-08-30T13:49:06;100862.41;;;33.76;23.85
4981;BME280;2507;50.392;7.482;2022-08-30T13:51:33;100862.44;;;33.81;24.52
4981;BME280;2507;50.392;7.482;2022-08-30T13:53:58;100855.78;;;33.12;24.65
4981;BME280;2507;50.392;7.482;2022-08-30T13:56:28;100851.50;;;32.83;25.63
4981;BME280;2507;50.392;7.482;2022-08-30T13:58:57;100853.63;;;32.64;25.73
4981;BME280;2507;50.392;7.482;2022-08-30T14:01:22;100851.06;;;33.08;25.02
4981;BME280;2507;50.392;7.482;2022-08-30T14:03:47;100847.59;;;33.29;25.13
4981;BME280;2507;50.392;7.482;2022-08-30T14:06:13;100853.59;;;33.47;24.92
4981;BME280;2507;50.392;7.482;2022-08-30T14:08:38;100850.41;;;33.77;24.06